aviador You're here:

KSMX Decoded Metar

SANTA MARIA in CA, USA
Report Time2018-04-21 03:51:00
UTC Time2018-04-21 04:04:57
Flight Rules vfr VFR
Wind340° at 03 kt
W.Decomp.*RWY 30: 2.7 kt HW 1.3 kt RCW
RWY 02: 1.8 kt HW 2.4 kt LCW
W.Rank340° ranks 10
Current wind is below 340° avg. (6.4)
Visibility9656 m
Phenomena:Mist
Clouds:Few 013 Hf
Expected CloudBase > 400 ft AGL from Temp-Dew spread
CeilingNone
Temp11°C (ISA -4)
Dew Point10°C (94% RH)
AAT10.0°C
QNH1021 hPa
Density Alt-282 ft
Elevation243 ft
Report Wrong Elevation
Raw Report
KSMX 210351Z AUTO 34003KT 6SM BR FEW013 11/10 A3015 RMK AO2 SLP212
T01110100 $=

Extra information for KSMX:More info

Metar Taf Metar & Taf Last 4 Metars F.Rules Stats Wind Profile Meteogram Temp Stats Airport Information Weather charts Add Link Nearby VenuesMetar ALERT Operation Metar Decoded Social comments

AIRNAV info for KSMX